sensor_id;sensor_type;location;lat;lon;timestamp;P1;durP1;ratioP1;P2;durP2;ratioP2
27985;SDS011;15453;53.692;10.168;2023-03-20T00:01:53;34.03;;;20.83;;
27985;SDS011;15453;53.692;10.168;2023-03-20T00:04:19;37.55;;;21.80;;
27985;SDS011;15453;53.692;10.168;2023-03-20T00:06:45;37.78;;;21.35;;
27985;SDS011;15453;53.692;10.168;2023-03-20T00:09:10;42.00;;;24.05;;
27985;SDS011;15453;53.692;10.168;2023-03-20T00:11:43;35.55;;;21.23;;
27985;SDS011;15453;53.692;10.168;2023-03-20T00:14:12;37.67;;;21.42;;
27985;SDS011;15453;53.692;10.168;2023-03-20T00:16:40;41.55;;;23.30;;
27985;SDS011;15453;53.692;10.168;2023-03-20T00:19:14;42.22;;;22.90;;
27985;SDS011;15453;53.692;10.168;2023-03-20T00:21:47;39.28;;;21.73;;
27985;SDS011;15453;53.692;10.168;2023-03-20T00:24:14;40.17;;;21.55;;
27985;SDS011;15453;53.692;10.168;2023-03-20T00:26:40;38.53;;;21.52;;
27985;SDS011;15453;53.692;10.168;2023-03-20T00:29:20;41.75;;;22.98;;
27985;SDS011;15453;53.692;10.168;2023-03-20T00:31:47;43.45;;;23.63;;
27985;SDS011;15453;53.692;10.168;2023-03-20T00:34:14;42.65;;;22.80;;
27985;SDS011;15453;53.692;10.168;2023-03-20T00:36:41;41.30;;;23.50;;
27985;SDS011;15453;53.692;10.168;2023-03-20T00:39:06;43.67;;;23.88;;
27985;SDS011;15453;53.692;10.168;2023-03-20T00:46:57;42.35;;;23.83;;
27985;SDS011;15453;53.692;10.168;2023-03-20T00:49:26;43.15;;;23.30;;
27985;SDS011;15453;53.692;10.168;2023-03-20T00:51:53;40.40;;;22.92;;
27985;SDS011;15453;53.692;10.168;2023-03-20T00:54:18;43.58;;;23.30;;
27985;SDS011;15453;53.692;10.168;2023-03-20T00:59:22;49.53;;;25.25;;
27985;SDS011;15453;53.692;10.168;2023-03-20T01:01:50;45.65;;;23.95;;
27985;SDS011;15453;53.692;10.168;2023-03-20T01:04:16;44.67;;;24.08;;
27985;SDS011;15453;53.692;10.168;2023-03-20T01:06:43;51.35;;;26.02;;
27985;SDS011;15453;53.692;10.168;2023-03-20T01:09:09;43.83;;;25.20;;
27985;SDS011;15453;53.692;10.168;2023-03-20T01:11:35;48.63;;;26.52;;
27985;SDS011;15453;53.692;10.168;2023-03-20T01:14:01;48.85;;;25.90;;
27985;SDS011;15453;53.692;10.168;2023-03-20T01:16:26;46.30;;;25.65;;
27985;SDS011;15453;53.692;10.168;2023-03-20T01:18:52;49.85;;;26.50;;
27985;SDS011;15453;53.692;10.168;2023-03-20T01:21:18;49.45;;;25.77;;
27985;SDS011;15453;53.692;10.168;2023-03-20T01:23:44;47.55;;;25.67;;
27985;SDS011;15453;53.692;10.168;2023-03-20T01:26:25;50.33;;;26.15;;
27985;SDS011;15453;53.692;10.168;2023-03-20T01:28:56;46.05;;;25.30;;
27985;SDS011;15453;53.692;10.168;2023-03-20T01:31:21;44.78;;;24.45;;
27985;SDS011;15453;53.692;10.168;2023-03-20T01:33:46;48.42;;;25.77;;
27985;SDS011;15453;53.692;10.168;2023-03-20T01:36:12;43.17;;;23.90;;
27985;SDS011;15453;53.692;10.168;2023-03-20T01:38:40;49.83;;;26.60;;
27985;SDS011;15453;53.692;10.168;2023-03-20T01:41:11;49.58;;;26.55;;
27985;SDS011;15453;53.692;10.168;2023-03-20T01:43:38;48.53;;;25.65;;
27985;SDS011;15453;53.692;10.168;2023-03-20T01:56:32;46.15;;;23.98;;
27985;SDS011;15453;53.692;10.168;2023-03-20T01:59:02;40.92;;;21.35;;
27985;SDS011;15453;53.692;10.168;2023-03-20T02:04:06;37.38;;;19.00;;
27985;SDS011;15453;53.692;10.168;2023-03-20T02:06:33;35.47;;;17.17;;
27985;SDS011;15453;53.692;10.168;2023-03-20T02:09:00;36.83;;;18.35;;
27985;SDS011;15453;53.692;10.168;2023-03-20T02:11:25;31.75;;;17.55;;
27985;SDS011;15453;53.692;10.168;2023-03-20T02:13:51;33.00;;;16.67;;
27985;SDS011;15453;53.692;10.168;2023-03-20T02:16:18;30.98;;;17.23;;
27985;SDS011;15453;53.692;10.168;2023-03-20T02:18:44;31.83;;;16.60;;
27985;SDS011;15453;53.692;10.168;2023-03-20T02:23:43;25.52;;;14.30;;
27985;SDS011;15453;53.692;10.168;2023-03-20T02:32:18;24.92;;;14.20;;
27985;SDS011;15453;53.692;10.168;2023-03-20T02:38:04;25.17;;;14.43;;
27985;SDS011;15453;53.692;10.168;2023-03-20T02:43:21;24.30;;;13.38;;
27985;SDS011;15453;53.692;10.168;2023-03-20T02:48:57;23.60;;;14.10;;
27985;SDS011;15453;53.692;10.168;2023-03-20T02:57:08;21.55;;;11.60;;
27985;SDS011;15453;53.692;10.168;2023-03-20T02:59:40;18.08;;;11.43;;
27985;SDS011;15453;53.692;10.168;2023-03-20T03:02:16;18.52;;;11.18;;
27985;SDS011;15453;53.692;10.168;2023-03-20T03:04:51;18.00;;;11.13;;
27985;SDS011;15453;53.692;10.168;2023-03-20T03:07:21;17.75;;;10.75;;
27985;SDS011;15453;53.692;10.168;2023-03-20T03:09:52;15.65;;;9.82;;
27985;SDS011;15453;53.692;10.168;2023-03-20T03:12:21;14.55;;;9.98;;
27985;SDS011;15453;53.692;10.168;2023-03-20T03:14:55;13.60;;;8.90;;
27985;SDS011;15453;53.692;10.168;2023-03-20T03:17:25;14.35;;;9.13;;
27985;SDS011;15453;53.692;10.168;2023-03-20T03:22:23;12.90;;;8.65;;
27985;SDS011;15453;53.692;10.168;2023-03-20T03:24:50;13.43;;;8.45;;
27985;SDS011;15453;53.692;10.168;2023-03-20T03:27:22;11.95;;;7.82;;
27985;SDS011;15453;53.692;10.168;2023-03-20T03:29:55;11.57;;;7.75;;
27985;SDS011;15453;53.692;10.168;2023-03-20T03:32:24;12.68;;;8.30;;
27985;SDS011;15453;53.692;10.168;2023-03-20T03:34:58;11.02;;;7.00;;
27985;SDS011;15453;53.692;10.168;2023-03-20T03:37:36;8.85;;;5.90;;
27985;SDS011;15453;53.692;10.168;2023-03-20T03:40:15;8.60;;;5.85;;
27985;SDS011;15453;53.692;10.168;2023-03-20T03:42:43;8.30;;;5.40;;
27985;SDS011;15453;53.692;10.168;2023-03-20T03:50:40;7.57;;;5.00;;
27985;SDS011;15453;53.692;10.168;2023-03-20T03:53:12;6.80;;;4.70;;
27985;SDS011;15453;53.692;10.168;2023-03-20T03:55:52;6.40;;;4.72;;
27985;SDS011;15453;53.692;10.168;2023-03-20T04:00:58;5.35;;;3.45;;
27985;SDS011;15453;53.692;10.168;2023-03-20T04:03:29;5.63;;;4.05;;
27985;SDS011;15453;53.692;10.168;2023-03-20T04:05:59;6.80;;;4.38;;
27985;SDS011;15453;53.692;10.168;2023-03-20T04:08:26;6.35;;;4.50;;
27985;SDS011;15453;53.692;10.168;2023-03-20T04:10:52;6.45;;;4.65;;
27985;SDS011;15453;53.692;10.168;2023-03-20T04:13:17;5.32;;;3.80;;
27985;SDS011;15453;53.692;10.168;2023-03-20T04:15:42;5.63;;;4.22;;
27985;SDS011;15453;53.692;10.168;2023-03-20T04:18:12;6.03;;;4.28;;
27985;SDS011;15453;53.692;10.168;2023-03-20T04:20:39;5.22;;;3.80;;
27985;SDS011;15453;53.692;10.168;2023-03-20T04:23:05;5.38;;;3.97;;
27985;SDS011;15453;53.692;10.168;2023-03-20T04:25:30;7.07;;;4.50;;
27985;SDS011;15453;53.692;10.168;2023-03-20T04:27:55;6.15;;;4.03;;
27985;SDS011;15453;53.692;10.168;2023-03-20T04:30:21;6.35;;;4.57;;
27985;SDS011;15453;53.692;10.168;2023-03-20T04:32:46;6.25;;;4.15;;
27985;SDS011;15453;53.692;10.168;2023-03-20T04:35:12;7.78;;;4.60;;
27985;SDS011;15453;53.692;10.168;2023-03-20T04:37:37;5.82;;;4.15;;
27985;SDS011;15453;53.692;10.168;2023-03-20T04:40:02;5.80;;;4.53;;
27985;SDS011;15453;53.692;10.168;2023-03-20T04:42:28;6.32;;;4.45;;
27985;SDS011;15453;53.692;10.168;2023-03-20T04:44:53;8.05;;;4.10;;
27985;SDS011;15453;53.692;10.168;2023-03-20T04:47:19;5.93;;;4.75;;
27985;SDS011;15453;53.692;10.168;2023-03-20T04:49:44;5.70;;;4.45;;
27985;SDS011;15453;53.692;10.168;2023-03-20T04:52:09;5.88;;;3.95;;
27985;SDS011;15453;53.692;10.168;2023-03-20T04:54:35;6.20;;;4.60;;
27985;SDS011;15453;53.692;10.168;2023-03-20T04:57:00;6.00;;;4.07;;
27985;SDS011;15453;53.692;10.168;2023-03-20T04:59:26;6.03;;;4.30;;
27985;SDS011;15453;53.692;10.168;2023-03-20T05:01:51;7.32;;;4.30;;
27985;SDS011;15453;53.692;10.168;2023-03-20T05:04:16;5.38;;;3.85;;
27985;SDS011;15453;53.692;10.168;2023-03-20T05:06:41;5.15;;;3.90;;
27985;SDS011;15453;53.692;10.168;2023-03-20T05:09:08;5.68;;;4.32;;
27985;SDS011;15453;53.692;10.168;2023-03-20T05:11:33;5.45;;;4.18;;
27985;SDS011;15453;53.692;10.168;2023-03-20T05:13:59;6.53;;;4.95;;
27985;SDS011;15453;53.692;10.168;2023-03-20T05:16:24;5.93;;;4.13;;
27985;SDS011;15453;53.692;10.168;2023-03-20T05:18:49;5.85;;;4.60;;
27985;SDS011;15453;53.692;10.168;2023-03-20T05:21:15;5.82;;;4.20;;
27985;SDS011;15453;53.692;10.168;2023-03-20T05:23:40;5.53;;;3.90;;
27985;SDS011;15453;53.692;10.168;2023-03-20T05:26:05;6.43;;;4.60;;
27985;SDS011;15453;53.692;10.168;2023-03-20T05:28:31;8.02;;;5.50;;
27985;SDS011;15453;53.692;10.168;2023-03-20T05:30:56;6.03;;;4.70;;
27985;SDS011;15453;53.692;10.168;2023-03-20T05:33:22;6.60;;;4.82;;
27985;SDS011;15453;53.692;10.168;2023-03-20T05:35:47;7.88;;;5.40;;
27985;SDS011;15453;53.692;10.168;2023-03-20T05:38:12;7.47;;;5.40;;
27985;SDS011;15453;53.692;10.168;2023-03-20T05:40:38;5.78;;;4.60;;
27985;SDS011;15453;53.692;10.168;2023-03-20T05:43:03;7.05;;;5.25;;
27985;SDS011;15453;53.692;10.168;2023-03-20T05:45:29;7.53;;;5.38;;
27985;SDS011;15453;53.692;10.168;2023-03-20T05:47:55;7.88;;;5.03;;
27985;SDS011;15453;53.692;10.168;2023-03-20T05:50:20;6.20;;;5.10;;
27985;SDS011;15453;53.692;10.168;2023-03-20T05:52:46;7.25;;;5.07;;
27985;SDS011;15453;53.692;10.168;2023-03-20T05:55:12;5.97;;;4.80;;
27985;SDS011;15453;53.692;10.168;2023-03-20T05:57:37;5.88;;;4.78;;
27985;SDS011;15453;53.692;10.168;2023-03-20T06:00:03;7.07;;;5.13;;
27985;SDS011;15453;53.692;10.168;2023-03-20T06:02:29;6.55;;;4.88;;
27985;SDS011;15453;53.692;10.168;2023-03-20T06:04:54;6.13;;;4.72;;
27985;SDS011;15453;53.692;10.168;2023-03-20T06:07:20;5.80;;;4.60;;
27985;SDS011;15453;53.692;10.168;2023-03-20T06:09:45;9.90;;;5.78;;
27985;SDS011;15453;53.692;10.168;2023-03-20T06:12:11;8.38;;;5.20;;
27985;SDS011;15453;53.692;10.168;2023-03-20T06:14:36;9.48;;;5.30;;
27985;SDS011;15453;53.692;10.168;2023-03-20T06:17:01;6.95;;;4.88;;
27985;SDS011;15453;53.692;10.168;2023-03-20T06:19:27;5.90;;;4.63;;
27985;SDS011;15453;53.692;10.168;2023-03-20T06:21:52;7.18;;;5.05;;
27985;SDS011;15453;53.692;10.168;2023-03-20T06:24:17;6.40;;;5.03;;
27985;SDS011;15453;53.692;10.168;2023-03-20T06:26:43;7.22;;;4.95;;
27985;SDS011;15453;53.692;10.168;2023-03-20T06:29:08;8.02;;;5.93;;
27985;SDS011;15453;53.692;10.168;2023-03-20T06:31:33;8.15;;;5.70;;
27985;SDS011;15453;53.692;10.168;2023-03-20T06:33:58;7.60;;;5.45;;
27985;SDS011;15453;53.692;10.168;2023-03-20T06:36:24;8.15;;;5.95;;
27985;SDS011;15453;53.692;10.168;2023-03-20T06:38:49;11.55;;;6.28;;
27985;SDS011;15453;53.692;10.168;2023-03-20T06:41:14;9.43;;;6.47;;
27985;SDS011;15453;53.692;10.168;2023-03-20T06:43:40;8.90;;;6.15;;
27985;SDS011;15453;53.692;10.168;2023-03-20T06:46:06;9.68;;;6.45;;
27985;SDS011;15453;53.692;10.168;2023-03-20T06:48:32;10.65;;;6.60;;
27985;SDS011;15453;53.692;10.168;2023-03-20T06:50:57;9.02;;;6.60;;
27985;SDS011;15453;53.692;10.168;2023-03-20T06:53:23;9.35;;;6.30;;
27985;SDS011;15453;53.692;10.168;2023-03-20T06:55:49;10.73;;;6.85;;
27985;SDS011;15453;53.692;10.168;2023-03-20T06:58:14;10.38;;;6.47;;
27985;SDS011;15453;53.692;10.168;2023-03-20T07:00:40;12.02;;;7.82;;
27985;SDS011;15453;53.692;10.168;2023-03-20T07:03:06;10.80;;;7.32;;
27985;SDS011;15453;53.692;10.168;2023-03-20T07:05:31;9.70;;;6.85;;
27985;SDS011;15453;53.692;10.168;2023-03-20T07:07:57;11.18;;;7.85;;
27985;SDS011;15453;53.692;10.168;2023-03-20T07:10:23;10.05;;;6.88;;
27985;SDS011;15453;53.692;10.168;2023-03-20T07:12:49;13.98;;;8.10;;
27985;SDS011;15453;53.692;10.168;2023-03-20T07:15:15;10.30;;;7.35;;
27985;SDS011;15453;53.692;10.168;2023-03-20T07:17:40;11.45;;;7.47;;
27985;SDS011;15453;53.692;10.168;2023-03-20T07:20:06;11.63;;;8.02;;
27985;SDS011;15453;53.692;10.168;2023-03-20T07:22:32;13.20;;;9.23;;
27985;SDS011;15453;53.692;10.168;2023-03-20T07:24:58;11.55;;;8.23;;
27985;SDS011;15453;53.692;10.168;2023-03-20T07:27:23;12.90;;;8.18;;
27985;SDS011;15453;53.692;10.168;2023-03-20T07:29:48;12.55;;;8.77;;
27985;SDS011;15453;53.692;10.168;2023-03-20T07:32:14;13.43;;;8.77;;
27985;SDS011;15453;53.692;10.168;2023-03-20T07:34:40;13.18;;;8.60;;
27985;SDS011;15453;53.692;10.168;2023-03-20T07:37:05;13.70;;;8.82;;
27985;SDS011;15453;53.692;10.168;2023-03-20T07:39:31;11.60;;;9.02;;
27985;SDS011;15453;53.692;10.168;2023-03-20T07:41:56;11.98;;;8.77;;
27985;SDS011;15453;53.692;10.168;2023-03-20T07:44:21;12.38;;;8.60;;
27985;SDS011;15453;53.692;10.168;2023-03-20T07:46:47;12.75;;;9.07;;
27985;SDS011;15453;53.692;10.168;2023-03-20T07:49:15;13.52;;;8.85;;
27985;SDS011;15453;53.692;10.168;2023-03-20T07:51:44;17.75;;;8.82;;
27985;SDS011;15453;53.692;10.168;2023-03-20T07:54:11;13.25;;;8.35;;
27985;SDS011;15453;53.692;10.168;2023-03-20T07:56:36;12.63;;;7.68;;
27985;SDS011;15453;53.692;10.168;2023-03-20T07:59:01;11.18;;;8.10;;
27985;SDS011;15453;53.692;10.168;2023-03-20T08:01:27;11.40;;;7.97;;
27985;SDS011;15453;53.692;10.168;2023-03-20T08:03:52;14.40;;;8.50;;
27985;SDS011;15453;53.692;10.168;2023-03-20T08:06:17;8.98;;;6.97;;
27985;SDS011;15453;53.692;10.168;2023-03-20T08:08:43;10.30;;;6.28;;
27985;SDS011;15453;53.692;10.168;2023-03-20T08:11:09;10.05;;;7.07;;
27985;SDS011;15453;53.692;10.168;2023-03-20T08:13:34;12.02;;;7.00;;
27985;SDS011;15453;53.692;10.168;2023-03-20T08:16:00;7.63;;;5.70;;
27985;SDS011;15453;53.692;10.168;2023-03-20T08:18:25;8.82;;;6.05;;
27985;SDS011;15453;53.692;10.168;2023-03-20T08:20:50;10.00;;;5.63;;
27985;SDS011;15453;53.692;10.168;2023-03-20T08:23:16;8.75;;;5.20;;
27985;SDS011;15453;53.692;10.168;2023-03-20T08:25:45;8.02;;;5.85;;
27985;SDS011;15453;53.692;10.168;2023-03-20T08:28:12;9.07;;;5.82;;
27985;SDS011;15453;53.692;10.168;2023-03-20T08:30:37;8.18;;;5.28;;
27985;SDS011;15453;53.692;10.168;2023-03-20T08:33:03;8.18;;;5.65;;
27985;SDS011;15453;53.692;10.168;2023-03-20T08:35:28;8.55;;;5.18;;
27985;SDS011;15453;53.692;10.168;2023-03-20T08:37:54;8.60;;;5.63;;
27985;SDS011;15453;53.692;10.168;2023-03-20T08:40:19;10.38;;;4.78;;
27985;SDS011;15453;53.692;10.168;2023-03-20T08:42:44;6.97;;;4.40;;
27985;SDS011;15453;53.692;10.168;2023-03-20T08:45:10;9.45;;;5.45;;
27985;SDS011;15453;53.692;10.168;2023-03-20T08:47:36;9.75;;;5.40;;
27985;SDS011;15453;53.692;10.168;2023-03-20T08:50:01;6.80;;;4.80;;
27985;SDS011;15453;53.692;10.168;2023-03-20T08:52:27;7.10;;;4.90;;
27985;SDS011;15453;53.692;10.168;2023-03-20T08:54:52;6.45;;;4.25;;
27985;SDS011;15453;53.692;10.168;2023-03-20T08:57:17;5.88;;;4.32;;
27985;SDS011;15453;53.692;10.168;2023-03-20T08:59:42;6.95;;;5.00;;
27985;SDS011;15453;53.692;10.168;2023-03-20T09:02:08;8.98;;;4.95;;
27985;SDS011;15453;53.692;10.168;2023-03-20T09:04:35;8.32;;;4.90;;
27985;SDS011;15453;53.692;10.168;2023-03-20T09:07:00;12.43;;;5.25;;
27985;SDS011;15453;53.692;10.168;2023-03-20T09:09:27;5.88;;;4.28;;
27985;SDS011;15453;53.692;10.168;2023-03-20T09:11:53;7.80;;;4.72;;
27985;SDS011;15453;53.692;10.168;2023-03-20T09:14:21;7.03;;;4.18;;
27985;SDS011;15453;53.692;10.168;2023-03-20T09:16:47;6.22;;;4.35;;
27985;SDS011;15453;53.692;10.168;2023-03-20T09:19:12;7.85;;;4.38;;
27985;SDS011;15453;53.692;10.168;2023-03-20T09:21:37;8.77;;;4.25;;
27985;SDS011;15453;53.692;10.168;2023-03-20T09:24:03;9.60;;;4.60;;
27985;SDS011;15453;53.692;10.168;2023-03-20T09:26:28;5.82;;;3.72;;
27985;SDS011;15453;53.692;10.168;2023-03-20T09:28:53;6.57;;;3.78;;
27985;SDS011;15453;53.692;10.168;2023-03-20T09:31:18;7.22;;;4.13;;
27985;SDS011;15453;53.692;10.168;2023-03-20T09:33:44;5.35;;;3.60;;
27985;SDS011;15453;53.692;10.168;2023-03-20T09:36:09;7.38;;;4.10;;
27985;SDS011;15453;53.692;10.168;2023-03-20T09:38:35;6.13;;;4.20;;
27985;SDS011;15453;53.692;10.168;2023-03-20T09:41:02;9.43;;;4.65;;
27985;SDS011;15453;53.692;10.168;2023-03-20T09:52:20;8.68;;;4.40;;
27985;SDS011;15453;53.692;10.168;2023-03-20T09:54:50;8.25;;;4.10;;
27985;SDS011;15453;53.692;10.168;2023-03-20T09:57:38;7.40;;;3.88;;
27985;SDS011;15453;53.692;10.168;2023-03-20T10:00:13;6.38;;;3.92;;
27985;SDS011;15453;53.692;10.168;2023-03-20T10:02:45;8.05;;;4.40;;
27985;SDS011;15453;53.692;10.168;2023-03-20T10:07:48;6.00;;;3.83;;
27985;SDS011;15453;53.692;10.168;2023-03-20T10:10:15;8.57;;;3.90;;
27985;SDS011;15453;53.692;10.168;2023-03-20T10:12:54;9.38;;;5.45;;
27985;SDS011;15453;53.692;10.168;2023-03-20T10:15:31;9.23;;;4.85;;
27985;SDS011;15453;53.692;10.168;2023-03-20T10:18:23;7.55;;;4.05;;
27985;SDS011;15453;53.692;10.168;2023-03-20T10:20:58;8.50;;;4.45;;
27985;SDS011;15453;53.692;10.168;2023-03-20T10:23:35;8.32;;;5.38;;
27985;SDS011;15453;53.692;10.168;2023-03-20T10:26:09;8.60;;;4.97;;
27985;SDS011;15453;53.692;10.168;2023-03-20T10:28:42;7.50;;;4.72;;
27985;SDS011;15453;53.692;10.168;2023-03-20T10:36:45;8.85;;;5.05;;
27985;SDS011;15453;53.692;10.168;2023-03-20T10:42:08;9.43;;;4.97;;
27985;SDS011;15453;53.692;10.168;2023-03-20T10:44:41;8.07;;;5.13;;
27985;SDS011;15453;53.692;10.168;2023-03-20T10:47:10;9.90;;;6.00;;
27985;SDS011;15453;53.692;10.168;2023-03-20T10:49:40;9.48;;;5.85;;
27985;SDS011;15453;53.692;10.168;2023-03-20T10:52:13;9.13;;;5.60;;
27985;SDS011;15453;53.692;10.168;2023-03-20T10:54:55;15.30;;;5.75;;
27985;SDS011;15453;53.692;10.168;2023-03-20T10:57:25;10.38;;;6.15;;
27985;SDS011;15453;53.692;10.168;2023-03-20T10:59:56;9.30;;;5.15;;
27985;SDS011;15453;53.692;10.168;2023-03-20T11:02:24;11.23;;;6.07;;
27985;SDS011;15453;53.692;10.168;2023-03-20T11:04:52;8.93;;;5.57;;
27985;SDS011;15453;53.692;10.168;2023-03-20T11:07:27;20.58;;;5.85;;
27985;SDS011;15453;53.692;10.168;2023-03-20T11:10:08;12.50;;;6.00;;
27985;SDS011;15453;53.692;10.168;2023-03-20T11:12:41;9.13;;;5.47;;
27985;SDS011;15453;53.692;10.168;2023-03-20T11:15:22;11.85;;;6.05;;
27985;SDS011;15453;53.692;10.168;2023-03-20T11:18:06;9.93;;;5.85;;
27985;SDS011;15453;53.692;10.168;2023-03-20T11:20:42;13.85;;;6.57;;
27985;SDS011;15453;53.692;10.168;2023-03-20T11:23:13;11.68;;;5.95;;
27985;SDS011;15453;53.692;10.168;2023-03-20T11:33:29;15.52;;;6.03;;
27985;SDS011;15453;53.692;10.168;2023-03-20T11:35:56;11.45;;;5.63;;
27985;SDS011;15453;53.692;10.168;2023-03-20T11:38:23;10.73;;;4.78;;
27985;SDS011;15453;53.692;10.168;2023-03-20T11:40:49;11.95;;;5.53;;
27985;SDS011;15453;53.692;10.168;2023-03-20T11:43:19;12.75;;;6.10;;
27985;SDS011;15453;53.692;10.168;2023-03-20T11:45:48;10.70;;;5.60;;
27985;SDS011;15453;53.692;10.168;2023-03-20T11:48:19;11.60;;;6.10;;
27985;SDS011;15453;53.692;10.168;2023-03-20T11:51:05;11.57;;;5.95;;
27985;SDS011;15453;53.692;10.168;2023-03-20T11:53:38;12.90;;;6.10;;
27985;SDS011;15453;53.692;10.168;2023-03-20T11:58:31;11.43;;;5.38;;
27985;SDS011;15453;53.692;10.168;2023-03-20T12:00:58;8.88;;;4.90;;
27985;SDS011;15453;53.692;10.168;2023-03-20T12:03:32;10.82;;;5.10;;
27985;SDS011;15453;53.692;10.168;2023-03-20T12:05:58;9.98;;;5.57;;
27985;SDS011;15453;53.692;10.168;2023-03-20T12:08:25;11.00;;;5.55;;
27985;SDS011;15453;53.692;10.168;2023-03-20T12:15:54;10.32;;;5.05;;
27985;SDS011;15453;53.692;10.168;2023-03-20T12:18:27;8.90;;;4.80;;
27985;SDS011;15453;53.692;10.168;2023-03-20T12:21:02;9.40;;;5.38;;
27985;SDS011;15453;53.692;10.168;2023-03-20T12:23:36;10.20;;;5.18;;
27985;SDS011;15453;53.692;10.168;2023-03-20T12:26:14;10.80;;;5.25;;
27985;SDS011;15453;53.692;10.168;2023-03-20T12:36:30;9.02;;;4.78;;
27985;SDS011;15453;53.692;10.168;2023-03-20T12:38:57;10.95;;;5.47;;
27985;SDS011;15453;53.692;10.168;2023-03-20T12:41:24;10.32;;;5.07;;
27985;SDS011;15453;53.692;10.168;2023-03-20T12:44:14;11.25;;;4.65;;
27985;SDS011;15453;53.692;10.168;2023-03-20T12:47:03;8.45;;;4.80;;
27985;SDS011;15453;53.692;10.168;2023-03-20T12:50:00;8.10;;;5.05;;
27985;SDS011;15453;53.692;10.168;2023-03-20T13:00:53;10.88;;;6.05;;
27985;SDS011;15453;53.692;10.168;2023-03-20T13:11:46;10.70;;;5.45;;
27985;SDS011;15453;53.692;10.168;2023-03-20T13:17:00;11.32;;;5.38;;
27985;SDS011;15453;53.692;10.168;2023-03-20T13:19:41;11.80;;;6.22;;
27985;SDS011;15453;53.692;10.168;2023-03-20T13:27:58;12.20;;;5.22;;
27985;SDS011;15453;53.692;10.168;2023-03-20T13:30:33;10.57;;;5.28;;
27985;SDS011;15453;53.692;10.168;2023-03-20T13:35:48;9.90;;;5.10;;
27985;SDS011;15453;53.692;10.168;2023-03-20T13:38:22;9.63;;;5.07;;
27985;SDS011;15453;53.692;10.168;2023-03-20T13:40:57;8.57;;;4.30;;
27985;SDS011;15453;53.692;10.168;2023-03-20T13:43:33;7.72;;;5.05;;
27985;SDS011;15453;53.692;10.168;2023-03-20T13:46:25;8.63;;;4.90;;
27985;SDS011;15453;53.692;10.168;2023-03-20T13:48:52;8.10;;;4.80;;
27985;SDS011;15453;53.692;10.168;2023-03-20T13:51:28;10.82;;;4.43;;
27985;SDS011;15453;53.692;10.168;2023-03-20T13:56:52;11.18;;;4.88;;
27985;SDS011;15453;53.692;10.168;2023-03-20T13:59:34;9.20;;;4.65;;
27985;SDS011;15453;53.692;10.168;2023-03-20T14:05:03;9.82;;;5.00;;
27985;SDS011;15453;53.692;10.168;2023-03-20T14:07:35;9.02;;;4.85;;
27985;SDS011;15453;53.692;10.168;2023-03-20T14:15:44;8.77;;;4.97;;
27985;SDS011;15453;53.692;10.168;2023-03-20T14:18:14;8.07;;;4.35;;
27985;SDS011;15453;53.692;10.168;2023-03-20T14:20:42;10.05;;;5.00;;
27985;SDS011;15453;53.692;10.168;2023-03-20T14:23:19;10.63;;;4.80;;
27985;SDS011;15453;53.692;10.168;2023-03-20T14:25:53;8.75;;;4.95;;
27985;SDS011;15453;53.692;10.168;2023-03-20T14:28:25;7.97;;;4.45;;
27985;SDS011;15453;53.692;10.168;2023-03-20T14:31:12;9.00;;;4.78;;
27985;SDS011;15453;53.692;10.168;2023-03-20T14:33:48;8.10;;;4.93;;
27985;SDS011;15453;53.692;10.168;2023-03-20T14:39:47;8.95;;;4.65;;
27985;SDS011;15453;53.692;10.168;2023-03-20T14:42:27;7.55;;;4.85;;
27985;SDS011;15453;53.692;10.168;2023-03-20T14:47:54;9.50;;;4.35;;
27985;SDS011;15453;53.692;10.168;2023-03-20T14:53:15;8.52;;;3.85;;
27985;SDS011;15453;53.692;10.168;2023-03-20T14:55:47;8.02;;;4.30;;
27985;SDS011;15453;53.692;10.168;2023-03-20T15:01:14;6.85;;;4.47;;
27985;SDS011;15453;53.692;10.168;2023-03-20T15:03:43;6.43;;;4.18;;
27985;SDS011;15453;53.692;10.168;2023-03-20T15:06:16;8.73;;;4.45;;
27985;SDS011;15453;53.692;10.168;2023-03-20T15:08:44;12.07;;;5.45;;
27985;SDS011;15453;53.692;10.168;2023-03-20T15:11:15;8.18;;;4.25;;
27985;SDS011;15453;53.692;10.168;2023-03-20T15:13:41;8.77;;;5.07;;
27985;SDS011;15453;53.692;10.168;2023-03-20T15:16:09;7.43;;;4.35;;
27985;SDS011;15453;53.692;10.168;2023-03-20T15:18:38;8.48;;;5.15;;
27985;SDS011;15453;53.692;10.168;2023-03-20T15:23:56;8.75;;;4.85;;
27985;SDS011;15453;53.692;10.168;2023-03-20T15:26:22;8.98;;;5.32;;
27985;SDS011;15453;53.692;10.168;2023-03-20T15:28:55;10.27;;;4.95;;
27985;SDS011;15453;53.692;10.168;2023-03-20T15:31:26;9.90;;;5.40;;
27985;SDS011;15453;53.692;10.168;2023-03-20T15:33:54;10.45;;;4.80;;
27985;SDS011;15453;53.692;10.168;2023-03-20T15:36:24;10.15;;;5.25;;
27985;SDS011;15453;53.692;10.168;2023-03-20T15:38:52;10.32;;;5.43;;
27985;SDS011;15453;53.692;10.168;2023-03-20T15:41:28;10.27;;;5.38;;
27985;SDS011;15453;53.692;10.168;2023-03-20T15:44:15;11.93;;;5.43;;
27985;SDS011;15453;53.692;10.168;2023-03-20T15:49:35;8.25;;;5.40;;
27985;SDS011;15453;53.692;10.168;2023-03-20T15:52:06;10.43;;;5.75;;
27985;SDS011;15453;53.692;10.168;2023-03-20T15:54:36;11.57;;;5.45;;
27985;SDS011;15453;53.692;10.168;2023-03-20T15:57:01;7.72;;;4.97;;
27985;SDS011;15453;53.692;10.168;2023-03-20T15:59:28;12.85;;;6.53;;
27985;SDS011;15453;53.692;10.168;2023-03-20T16:01:56;11.43;;;5.82;;
27985;SDS011;15453;53.692;10.168;2023-03-20T16:04:23;9.68;;;6.47;;
27985;SDS011;15453;53.692;10.168;2023-03-20T16:09:22;11.32;;;6.20;;
27985;SDS011;15453;53.692;10.168;2023-03-20T16:11:53;13.25;;;7.07;;
27985;SDS011;15453;53.692;10.168;2023-03-20T16:14:28;11.35;;;6.57;;
27985;SDS011;15453;53.692;10.168;2023-03-20T16:16:55;12.35;;;6.30;;
27985;SDS011;15453;53.692;10.168;2023-03-20T16:19:23;10.77;;;6.47;;
27985;SDS011;15453;53.692;10.168;2023-03-20T16:21:57;11.43;;;5.80;;
27985;SDS011;15453;53.692;10.168;2023-03-20T16:24:33;8.90;;;6.15;;
27985;SDS011;15453;53.692;10.168;2023-03-20T16:27:00;13.23;;;6.68;;
27985;SDS011;15453;53.692;10.168;2023-03-20T16:29:30;12.73;;;6.60;;
27985;SDS011;15453;53.692;10.168;2023-03-20T16:31:57;14.52;;;6.80;;
27985;SDS011;15453;53.692;10.168;2023-03-20T16:34:35;12.63;;;7.07;;
27985;SDS011;15453;53.692;10.168;2023-03-20T16:37:06;9.52;;;5.43;;
27985;SDS011;15453;53.692;10.168;2023-03-20T16:39:45;12.48;;;6.28;;
27985;SDS011;15453;53.692;10.168;2023-03-20T16:42:23;11.90;;;6.78;;
27985;SDS011;15453;53.692;10.168;2023-03-20T16:44:55;11.13;;;6.38;;
27985;SDS011;15453;53.692;10.168;2023-03-20T16:47:22;13.45;;;7.28;;
27985;SDS011;15453;53.692;10.168;2023-03-20T16:52:35;10.88;;;6.43;;
27985;SDS011;15453;53.692;10.168;2023-03-20T16:55:03;10.35;;;6.47;;
27985;SDS011;15453;53.692;10.168;2023-03-20T16:57:32;12.40;;;6.82;;
27985;SDS011;15453;53.692;10.168;2023-03-20T17:00:02;12.88;;;7.25;;
27985;SDS011;15453;53.692;10.168;2023-03-20T17:02:36;11.23;;;7.25;;
27985;SDS011;15453;53.692;10.168;2023-03-20T17:05:05;14.00;;;7.28;;
27985;SDS011;15453;53.692;10.168;2023-03-20T17:07:36;14.65;;;6.88;;
27985;SDS011;15453;53.692;10.168;2023-03-20T17:12:42;13.32;;;7.88;;
27985;SDS011;15453;53.692;10.168;2023-03-20T17:15:16;13.63;;;7.40;;
27985;SDS011;15453;53.692;10.168;2023-03-20T17:17:43;11.98;;;7.68;;
27985;SDS011;15453;53.692;10.168;2023-03-20T17:20:19;12.63;;;6.68;;